createdAt,value
2017-03-24T00:00:35.935Z,5.68
2017-03-24T00:01:44.831Z,5.82
2017-03-24T00:02:54.795Z,5.74
2017-03-24T00:04:04.665Z,5.68
2017-03-24T00:05:14.208Z,5.67
2017-03-24T00:06:23.420Z,5.67
2017-03-24T00:07:32.636Z,5.67
2017-03-24T00:08:41.574Z,5.74
2017-03-24T00:09:50.797Z,5.63
2017-03-24T00:11:00.336Z,5.63
2017-03-24T00:12:09.542Z,5.61
2017-03-24T00:13:19.086Z,5.65
2017-03-24T00:14:29.099Z,5.58
2017-03-24T00:15:38.633Z,5.63
2017-03-24T00:16:47.844Z,5.65
2017-03-24T00:17:56.733Z,5.58
2017-03-24T00:19:06.927Z,5.45
2017-03-24T00:20:16.539Z,5.57
2017-03-24T00:21:25.427Z,5.46
2017-03-24T00:22:34.316Z,5.49
2017-03-24T00:23:44.183Z,5.49
2017-03-24T00:24:53.397Z,5.4
2017-03-24T00:26:03.306Z,5.45
2017-03-24T00:27:12.199Z,5.4
2017-03-24T00:28:21.425Z,5.35
2017-03-24T00:29:31.293Z,5.27
2017-03-24T00:30:40.831Z,5.35
2017-03-24T00:31:49.863Z,5.27
2017-03-24T00:32:59.402Z,5.2
2017-03-24T00:34:08.622Z,5.25
2017-03-24T00:35:18.159Z,5.22
2017-03-24T00:36:27.702Z,5.24
2017-03-24T00:37:37.394Z,5.28
2017-03-24T00:38:46.611Z,5.24
2017-03-24T00:39:55.827Z,5.21
2017-03-24T00:41:04.708Z,5.21
2017-03-24T00:42:13.592Z,5.13
2017-03-24T00:43:23.457Z,5.17
2017-03-24T00:44:33.651Z,5.17
2017-03-24T00:45:42.538Z,5.17
2017-03-24T00:46:51.424Z,5.03
2017-03-24T00:48:00.649Z,5.03
2017-03-24T00:49:10.897Z,5.1
2017-03-24T00:50:20.116Z,4.99
2017-03-24T00:51:29.330Z,5.06
2017-03-24T00:52:38.221Z,5.13
2017-03-24T00:53:48.091Z,5.15
2017-03-24T00:54:57.993Z,5.03
2017-03-24T00:56:07.533Z,5
2017-03-24T00:57:16.429Z,4.94
2017-03-24T00:58:25.967Z,5.09
2017-03-24T00:59:35.833Z,5.02
2017-03-24T01:00:45.093Z,5.12
2017-03-24T01:01:53.975Z,5.06
2017-03-24T01:03:03.510Z,5
2017-03-24T01:04:13.062Z,5.07
2017-03-24T01:05:22.604Z,5
2017-03-24T01:06:31.683Z,4.97
2017-03-24T01:07:41.221Z,4.97
2017-03-24T01:08:51.096Z,5
2017-03-24T01:10:01.288Z,4.97
2017-03-24T01:11:10.504Z,5.09
2017-03-24T01:12:20.191Z,4.99
2017-03-24T01:13:29.732Z,5.07
2017-03-24T01:14:39.270Z,5.06
2017-03-24T01:15:48.803Z,4.97
2017-03-24T01:16:58.021Z,4.96
2017-03-24T01:18:07.435Z,4.91
2017-03-24T01:19:17.626Z,4.86
2017-03-24T01:20:26.841Z,4.82
2017-03-24T01:21:36.054Z,4.8
2017-03-24T01:22:44.947Z,4.84
2017-03-24T01:23:54.459Z,4.82
2017-03-24T01:25:04.004Z,4.77
2017-03-24T01:26:12.887Z,4.82
2017-03-24T01:27:21.773Z,4.73
2017-03-24T01:28:30.993Z,4.7
2017-03-24T01:29:40.257Z,4.72
2017-03-24T01:30:50.116Z,4.7
2017-03-24T01:31:59.649Z,4.72
2017-03-24T01:33:09.516Z,4.75
2017-03-24T01:34:18.444Z,4.69
2017-03-24T01:35:28.239Z,4.7
2017-03-24T01:36:37.452Z,4.69
2017-03-24T01:37:46.671Z,4.67
2017-03-24T01:38:56.860Z,4.62
2017-03-24T01:40:06.396Z,4.6
2017-03-24T01:41:15.443Z,4.63
2017-03-24T01:42:24.986Z,4.54
2017-03-24T01:43:35.180Z,4.48
2017-03-24T01:44:44.724Z,4.62
2017-03-24T01:45:54.263Z,4.6
2017-03-24T01:47:03.948Z,4.54
2017-03-24T01:48:12.843Z,4.52
2017-03-24T01:49:22.383Z,4.52
2017-03-24T01:50:31.606Z,4.6
2017-03-24T01:51:41.149Z,4.65
2017-03-24T01:52:50.842Z,4.59
2017-03-24T01:54:01.031Z,4.6
2017-03-24T01:55:10.249Z,4.52
2017-03-24T01:56:19.137Z,4.63
2017-03-24T01:57:28.394Z,4.59
2017-03-24T01:58:38.317Z,4.59
2017-03-24T01:59:48.183Z,4.6
2017-03-24T02:00:57.724Z,4.58
2017-03-24T02:02:07.268Z,4.52
2017-03-24T02:03:16.539Z,4.47
2017-03-24T02:04:26.563Z,4.55
2017-03-24T02:05:36.143Z,4.47
2017-03-24T02:06:45.352Z,4.44
2017-03-24T02:07:54.568Z,4.44
2017-03-24T02:09:04.113Z,4.45
2017-03-24T02:10:13.808Z,4.44
2017-03-24T02:11:23.347Z,4.42
2017-03-24T02:12:32.558Z,4.36
2017-03-24T02:13:42.100Z,4.34
2017-03-24T02:14:51.641Z,4.3
2017-03-24T02:16:01.230Z,4.29
2017-03-24T02:17:11.093Z,4.3
2017-03-24T02:18:20.310Z,4.3
2017-03-24T02:19:29.857Z,4.24
2017-03-24T02:20:39.406Z,4.29
2017-03-24T02:21:48.439Z,4.34
2017-03-24T02:22:57.348Z,4.27
2017-03-24T02:24:07.206Z,4.32
2017-03-24T02:25:17.066Z,4.3
2017-03-24T02:26:26.314Z,4.24
2017-03-24T02:27:35.686Z,4.32
2017-03-24T02:28:45.550Z,4.26
2017-03-24T02:29:54.768Z,4.26
2017-03-24T02:31:04.958Z,4.23
2017-03-24T02:32:13.868Z,4.23
2017-03-24T02:33:23.455Z,4.12
2017-03-24T02:34:33.641Z,4.14
2017-03-24T02:35:42.853Z,4.14
2017-03-24T02:36:51.737Z,4.12
2017-03-24T02:38:00.952Z,4.11
2017-03-24T02:39:10.541Z,4.16
2017-03-24T02:40:20.403Z,4.11
2017-03-24T02:41:29.288Z,4.11
2017-03-24T02:42:39.157Z,4.06
2017-03-24T02:43:48.699Z,4.06
2017-03-24T02:44:58.711Z,4.06
2017-03-24T02:46:08.250Z,4.09
2017-03-24T02:47:17.145Z,4.08
2017-03-24T02:48:27.013Z,4.09
2017-03-24T02:49:36.560Z,4.11
2017-03-24T02:50:45.741Z,4.08
2017-03-24T02:51:54.623Z,4.04
2017-03-24T02:53:03.833Z,4.05
2017-03-24T02:54:13.043Z,3.91
2017-03-24T02:55:22.914Z,3.96
2017-03-24T02:56:32.214Z,3.94
2017-03-24T02:57:41.429Z,3.94
2017-03-24T02:58:51.303Z,3.93
2017-03-24T03:00:01.494Z,3.9
2017-03-24T03:01:10.704Z,3.91
2017-03-24T03:02:19.839Z,3.96
2017-03-24T03:03:28.730Z,3.91
2017-03-24T03:04:38.594Z,3.9
2017-03-24T03:05:48.126Z,3.88
2017-03-24T03:06:57.337Z,3.88
2017-03-24T03:08:06.858Z,3.98
2017-03-24T03:09:16.394Z,3.84
2017-03-24T03:10:25.934Z,3.75
2017-03-24T03:11:35.141Z,3.79
2017-03-24T03:12:45.008Z,3.73
2017-03-24T03:13:55.019Z,3.84
2017-03-24T03:15:04.230Z,3.75
2017-03-24T03:16:13.443Z,3.8
2017-03-24T03:17:22.654Z,3.8
2017-03-24T03:18:31.541Z,3.76
2017-03-24T03:19:41.557Z,3.7
2017-03-24T03:20:50.439Z,3.78
2017-03-24T03:21:59.320Z,3.79
2017-03-24T03:23:08.530Z,3.78
2017-03-24T03:24:18.719Z,3.72
2017-03-24T03:25:28.077Z,3.75
2017-03-24T03:26:37.943Z,3.7
2017-03-24T03:27:47.157Z,3.7
2017-03-24T03:28:56.718Z,3.75
2017-03-24T03:30:06.576Z,3.66
2017-03-24T03:31:16.086Z,3.7
2017-03-24T03:32:25.629Z,3.66
2017-03-24T03:33:35.494Z,3.72
2017-03-24T03:34:45.357Z,3.62
2017-03-24T03:35:54.571Z,3.7
2017-03-24T03:37:04.158Z,3.7
2017-03-24T03:38:13.697Z,3.72
2017-03-24T03:39:23.231Z,3.68
2017-03-24T03:40:33.091Z,3.62
2017-03-24T03:41:42.637Z,3.7
2017-03-24T03:42:52.223Z,3.69
2017-03-24T03:44:02.415Z,3.69
2017-03-24T03:45:12.274Z,3.66
2017-03-24T03:46:21.154Z,3.62
2017-03-24T03:47:30.371Z,3.66
2017-03-24T03:48:40.427Z,3.76
2017-03-24T03:49:49.965Z,3.72
2017-03-24T03:51:00.156Z,3.68
2017-03-24T03:52:09.365Z,3.52
2017-03-24T03:53:19.553Z,3.58
2017-03-24T03:54:28.491Z,3.57
2017-03-24T03:55:38.035Z,3.55
2017-03-24T03:56:46.923Z,3.7
2017-03-24T03:57:56.137Z,3.66
2017-03-24T03:59:05.349Z,3.62
2017-03-24T04:00:14.615Z,3.6
2017-03-24T04:01:23.823Z,3.62
2017-03-24T04:02:33.036Z,3.54
2017-03-24T04:03:42.250Z,3.55
2017-03-24T04:04:52.113Z,3.57
2017-03-24T04:06:02.023Z,3.6
2017-03-24T04:07:10.910Z,3.52
2017-03-24T04:08:20.121Z,3.52
2017-03-24T04:09:29.663Z,3.57
2017-03-24T04:10:39.200Z,3.55
2017-03-24T04:11:48.288Z,3.52
2017-03-24T04:12:57.500Z,3.5
2017-03-24T04:14:07.365Z,3.43
2017-03-24T04:15:17.224Z,3.48
2017-03-24T04:16:27.084Z,3.51
2017-03-24T04:17:36.446Z,3.36
2017-03-24T04:18:46.309Z,3.43
2017-03-24T04:19:56.173Z,3.35
2017-03-24T04:21:06.037Z,3.4
2017-03-24T04:22:15.895Z,3.45
2017-03-24T04:23:25.907Z,3.43
2017-03-24T04:24:35.444Z,3.39
2017-03-24T04:25:44.326Z,3.39
2017-03-24T04:26:53.861Z,3.35
2017-03-24T04:28:02.749Z,3.33
2017-03-24T04:29:13.182Z,3.42
2017-03-24T04:30:22.390Z,3.35
2017-03-24T04:31:31.597Z,3.39
2017-03-24T04:32:40.806Z,3.42
2017-03-24T04:33:51.322Z,3.39
2017-03-24T04:35:01.010Z,3.4
2017-03-24T04:36:09.895Z,3.43
2017-03-24T04:37:19.106Z,3.32
2017-03-24T04:38:29.289Z,3.24
2017-03-24T04:39:38.520Z,3.35
2017-03-24T04:40:47.404Z,3.33
2017-03-24T04:41:56.937Z,3.36
2017-03-24T04:43:07.135Z,3.29
2017-03-24T04:44:16.675Z,3.28
2017-03-24T04:45:26.211Z,3.26
2017-03-24T04:46:35.581Z,3.26
2017-03-24T04:47:44.796Z,3.28
2017-03-24T04:48:54.660Z,3.29
2017-03-24T04:50:04.241Z,3.2
2017-03-24T04:51:13.776Z,3.36
2017-03-24T04:52:23.138Z,3.29
2017-03-24T04:53:32.343Z,3.23
2017-03-24T04:54:41.223Z,3.23
2017-03-24T04:55:50.758Z,3.28
2017-03-24T04:56:59.658Z,3.26
2017-03-24T04:58:09.193Z,3.18
2017-03-24T04:59:19.058Z,3.23
2017-03-24T05:00:28.597Z,3.23
2017-03-24T05:01:37.490Z,3.26
2017-03-24T05:02:46.702Z,3.21
2017-03-24T05:03:56.341Z,3.21
2017-03-24T05:05:06.576Z,3.28
2017-03-24T05:06:16.113Z,3.2
2017-03-24T05:07:25.003Z,3.28
2017-03-24T05:08:34.537Z,3.28
2017-03-24T05:09:44.556Z,3.21
2017-03-24T05:10:53.765Z,3.21
2017-03-24T05:12:03.339Z,3.18
2017-03-24T05:13:12.887Z,3.29
2017-03-24T05:14:22.101Z,3.26
2017-03-24T05:15:31.799Z,3.23
2017-03-24T05:16:40.689Z,3.23
2017-03-24T05:17:50.231Z,3.14
2017-03-24T05:18:59.124Z,3.21
2017-03-24T05:20:08.386Z,3.11
2017-03-24T05:21:17.743Z,3.18
2017-03-24T05:22:26.625Z,3.13
2017-03-24T05:23:35.833Z,3.14
2017-03-24T05:24:45.695Z,3.13
2017-03-24T05:25:54.904Z,3.13
2017-03-24T05:27:04.217Z,3.15
2017-03-24T05:28:13.101Z,3.13
2017-03-24T05:29:22.641Z,3.06
2017-03-24T05:30:32.504Z,3.1
2017-03-24T05:31:41.386Z,3.14
2017-03-24T05:32:50.972Z,3.08
2017-03-24T05:34:01.166Z,3.08
2017-03-24T05:35:10.703Z,3.02
2017-03-24T05:36:19.916Z,2.93
2017-03-24T05:37:29.139Z,3.06
2017-03-24T05:38:39.482Z,3.08
2017-03-24T05:39:49.024Z,3.05
2017-03-24T05:40:58.564Z,3.02
2017-03-24T05:42:07.449Z,3.03
2017-03-24T05:43:16.343Z,3
2017-03-24T05:44:26.038Z,2.99
2017-03-24T05:45:35.597Z,2.93
2017-03-24T05:46:44.484Z,2.97
2017-03-24T05:47:53.698Z,2.97
2017-03-24T05:49:02.914Z,3.03
2017-03-24T05:50:12.187Z,2.95
2017-03-24T05:51:21.724Z,2.99
2017-03-24T05:52:30.624Z,2.95
2017-03-24T05:53:39.524Z,3
2017-03-24T05:54:49.066Z,2.96
2017-03-24T05:55:58.709Z,3.08
2017-03-24T05:57:08.247Z,2.97
2017-03-24T05:58:17.457Z,2.97
2017-03-24T05:59:26.999Z,3
2017-03-24T06:00:36.208Z,2.93
2017-03-24T06:01:45.396Z,3.02
2017-03-24T06:02:54.611Z,2.99
2017-03-24T06:04:05.134Z,3
2017-03-24T06:05:14.672Z,3.05
2017-03-24T06:06:23.885Z,2.99
2017-03-24T06:07:32.822Z,3.05
2017-03-24T06:08:42.379Z,3.02
2017-03-24T06:09:52.250Z,3.02
2017-03-24T06:11:02.121Z,3.05
2017-03-24T06:12:11.659Z,3.06
2017-03-24T06:13:20.878Z,3.15
2017-03-24T06:14:30.750Z,3.13
2017-03-24T06:15:40.294Z,3.14
2017-03-24T06:16:49.189Z,3.13
2017-03-24T06:17:58.403Z,3.15
2017-03-24T06:19:08.530Z,3.13
2017-03-24T06:20:18.728Z,3.15
2017-03-24T06:21:27.935Z,3.24
2017-03-24T06:22:37.470Z,3.29
2017-03-24T06:23:47.343Z,3.31
2017-03-24T06:24:57.257Z,3.32
2017-03-24T06:26:07.132Z,3.36
2017-03-24T06:27:16.346Z,3.42
2017-03-24T06:28:25.601Z,3.43
2017-03-24T06:29:34.827Z,3.52
2017-03-24T06:30:44.436Z,3.51
2017-03-24T06:31:53.317Z,3.51
2017-03-24T06:33:02.206Z,3.48
2017-03-24T06:34:11.747Z,3.51
2017-03-24T06:35:21.610Z,3.51
2017-03-24T06:36:30.550Z,3.57
2017-03-24T06:37:40.093Z,3.6
2017-03-24T06:38:49.960Z,3.5
2017-03-24T06:39:59.179Z,3.68
2017-03-24T06:41:08.436Z,3.6
2017-03-24T06:42:17.421Z,3.65
2017-03-24T06:43:27.285Z,3.7
2017-03-24T06:44:37.480Z,3.61
2017-03-24T06:45:46.701Z,3.68
2017-03-24T06:46:56.241Z,3.68
2017-03-24T06:48:05.501Z,3.73
2017-03-24T06:49:15.042Z,3.78
2017-03-24T06:50:24.903Z,3.8
2017-03-24T06:51:33.788Z,3.73
2017-03-24T06:52:43.342Z,3.9
2017-03-24T06:53:53.205Z,3.79
2017-03-24T06:55:03.075Z,3.91
2017-03-24T06:56:11.971Z,3.98
2017-03-24T06:57:21.181Z,4.08
2017-03-24T06:58:30.396Z,3.96
2017-03-24T06:59:40.080Z,4.11
2017-03-24T07:00:49.288Z,4.06
2017-03-24T07:01:58.173Z,4.08
2017-03-24T07:03:08.056Z,4.14
2017-03-24T07:04:18.265Z,4.24
2017-03-24T07:05:27.807Z,4.23
2017-03-24T07:06:36.688Z,4.29
2017-03-24T07:07:45.578Z,4.23
2017-03-24T07:08:55.447Z,4.24
2017-03-24T07:10:05.306Z,4.32
2017-03-24T07:11:14.669Z,4.34
2017-03-24T07:12:23.879Z,4.42
2017-03-24T07:13:33.424Z,4.45
2017-03-24T07:14:42.966Z,4.44
2017-03-24T07:15:52.178Z,4.47
2017-03-24T07:17:01.638Z,4.47
2017-03-24T07:18:11.174Z,4.54
2017-03-24T07:19:20.385Z,4.6
2017-03-24T07:20:29.598Z,4.52
2017-03-24T07:21:38.490Z,4.69
2017-03-24T07:22:48.275Z,4.75
2017-03-24T07:23:57.814Z,4.73
2017-03-24T07:25:07.029Z,4.7
2017-03-24T07:26:16.299Z,4.75
2017-03-24T07:27:25.511Z,4.75
2017-03-24T07:28:34.501Z,4.78
2017-03-24T07:29:44.045Z,4.84
2017-03-24T07:30:52.939Z,4.92
2017-03-24T07:32:02.801Z,4.97
2017-03-24T07:33:12.016Z,4.99
2017-03-24T07:34:21.253Z,5.03
2017-03-24T07:35:30.468Z,4.94
2017-03-24T07:36:39.353Z,4.92
2017-03-24T07:37:48.575Z,5.02
2017-03-24T07:38:57.791Z,5.03
2017-03-24T07:40:07.504Z,5.13
2017-03-24T07:41:16.390Z,5.12
2017-03-24T07:42:25.934Z,5.1
2017-03-24T07:43:35.154Z,5.15
2017-03-24T07:44:44.374Z,5.17
2017-03-24T07:45:54.505Z,5.15
2017-03-24T07:47:04.051Z,5.17
2017-03-24T07:48:13.260Z,5.28
2017-03-24T07:49:23.129Z,5.31
2017-03-24T07:50:32.670Z,5.35
2017-03-24T07:51:42.184Z,5.3
2017-03-24T07:52:51.070Z,5.42
2017-03-24T07:54:00.614Z,5.38
2017-03-24T07:55:10.152Z,5.38
2017-03-24T07:56:19.369Z,5.49
2017-03-24T07:57:28.883Z,5.61
2017-03-24T07:58:37.767Z,5.61
2017-03-24T07:59:46.654Z,5.65
2017-03-24T08:00:55.869Z,5.65
2017-03-24T08:02:04.762Z,5.64
2017-03-24T08:03:13.797Z,5.67
2017-03-24T08:04:22.682Z,5.68
2017-03-24T08:05:31.893Z,5.65
2017-03-24T08:06:40.775Z,5.63
2017-03-24T08:07:49.986Z,5.64
2017-03-24T08:08:58.888Z,5.64
2017-03-24T08:10:08.427Z,5.67
2017-03-24T08:11:17.313Z,5.78
2017-03-24T08:12:26.199Z,5.81
2017-03-24T08:13:35.084Z,5.89
2017-03-24T08:14:44.200Z,5.93
2017-03-24T08:15:53.123Z,6.09
2017-03-24T08:17:02.007Z,6.17
2017-03-24T08:18:11.217Z,6.12
2017-03-24T08:19:20.431Z,6.09
2017-03-24T08:20:29.568Z,6.31
2017-03-24T08:21:38.455Z,6.18
2017-03-24T08:22:47.343Z,6.27
2017-03-24T08:23:56.566Z,6.27
2017-03-24T08:25:05.778Z,6.41
2017-03-24T08:26:15.023Z,6.49
2017-03-24T08:27:23.912Z,6.59
2017-03-24T08:28:32.804Z,6.54
2017-03-24T08:29:41.690Z,6.49
2017-03-24T08:30:50.575Z,6.56
2017-03-24T08:31:59.510Z,6.52
2017-03-24T08:33:08.397Z,6.61
2017-03-24T08:34:17.284Z,6.61
2017-03-24T08:35:26.176Z,6.71
2017-03-24T08:36:35.389Z,6.87
2017-03-24T08:37:44.645Z,6.87
2017-03-24T08:38:53.533Z,6.88
2017-03-24T08:40:02.419Z,6.91
2017-03-24T08:41:11.316Z,6.91
2017-03-24T08:42:20.203Z,6.89
2017-03-24T08:43:29.086Z,6.94
2017-03-24T08:44:37.979Z,6.92
2017-03-24T08:45:46.869Z,6.95
2017-03-24T08:46:55.753Z,6.95
2017-03-24T08:48:04.966Z,7.03
2017-03-24T08:49:14.016Z,7.05
2017-03-24T08:50:22.906Z,7.17
2017-03-24T08:51:31.791Z,7.31
2017-03-24T08:52:40.679Z,7.25
2017-03-24T08:53:49.946Z,7.25
2017-03-24T08:54:58.981Z,7.28
2017-03-24T08:56:07.864Z,7.16
2017-03-24T08:57:16.755Z,7.27
2017-03-24T08:58:25.972Z,7.5
2017-03-24T08:59:34.861Z,7.48
2017-03-24T09:00:43.811Z,7.55
2017-03-24T09:01:52.699Z,7.64
2017-03-24T09:03:01.593Z,7.72
2017-03-24T09:04:10.800Z,7.89
2017-03-24T09:05:19.686Z,7.9
2017-03-24T09:06:28.725Z,7.85
2017-03-24T09:07:37.612Z,7.92
2017-03-24T09:08:46.497Z,7.97
2017-03-24T09:09:55.392Z,8
2017-03-24T09:11:04.286Z,8.05
2017-03-24T09:12:13.421Z,8.11
2017-03-24T09:13:22.306Z,8.08
2017-03-24T09:14:31.197Z,8.18
2017-03-24T09:15:40.417Z,8.23
2017-03-24T09:16:49.306Z,8.33
2017-03-24T09:17:58.241Z,8.37
2017-03-24T09:19:07.132Z,8.48
2017-03-24T09:20:16.021Z,8.55
2017-03-24T09:21:25.563Z,8.58
2017-03-24T09:22:34.771Z,8.61
2017-03-24T09:23:43.755Z,8.77
2017-03-24T09:24:52.642Z,8.96
2017-03-24T09:26:01.534Z,8.98
2017-03-24T09:27:11.396Z,8.87
2017-03-24T09:28:20.327Z,8.89
2017-03-24T09:29:29.314Z,8.98
2017-03-24T09:30:38.529Z,9.08
2017-03-24T09:31:47.745Z,9.21
2017-03-24T09:32:56.631Z,9.33
2017-03-24T09:34:05.544Z,9.51
2017-03-24T09:35:14.580Z,9.43
2017-03-24T09:36:23.473Z,9.54
2017-03-24T09:37:32.361Z,9.66
2017-03-24T09:38:41.573Z,9.61
2017-03-24T09:39:50.465Z,9.68
2017-03-24T09:40:59.454Z,9.71
2017-03-24T09:42:08.341Z,9.61
2017-03-24T09:43:17.229Z,9.61
2017-03-24T09:44:26.120Z,9.68
2017-03-24T09:45:35.333Z,9.75
2017-03-24T09:46:44.319Z,9.89
2017-03-24T09:47:53.529Z,9.81
2017-03-24T09:49:02.736Z,9.79
2017-03-24T09:50:11.625Z,9.86
2017-03-24T09:51:20.839Z,10.04
2017-03-24T09:52:29.977Z,10.32
2017-03-24T09:53:38.865Z,10.26
2017-03-24T09:54:47.755Z,10.34
2017-03-24T09:55:56.644Z,10.48
2017-03-24T09:57:05.531Z,10.42
2017-03-24T09:58:14.815Z,10.45
2017-03-24T09:59:23.708Z,10.47
2017-03-24T10:00:32.598Z,10.48
2017-03-24T10:01:41.489Z,10.6
2017-03-24T10:02:50.706Z,10.53
2017-03-24T10:03:59.744Z,10.59
2017-03-24T10:05:08.634Z,10.61
2017-03-24T10:06:17.850Z,10.81
2017-03-24T10:07:27.387Z,10.78
2017-03-24T10:08:36.271Z,10.73
2017-03-24T10:09:45.640Z,10.73
2017-03-24T10:10:54.531Z,10.84
2017-03-24T10:12:03.416Z,10.82
2017-03-24T10:13:12.306Z,10.91
2017-03-24T10:14:21.232Z,10.84
2017-03-24T10:15:30.411Z,10.86
2017-03-24T10:16:39.322Z,10.84
2017-03-24T10:17:48.215Z,10.91
2017-03-24T10:18:57.112Z,10.89
2017-03-24T10:20:06.332Z,11.04
2017-03-24T10:21:15.948Z,11.1
2017-03-24T10:22:24.889Z,11.18
2017-03-24T10:23:34.112Z,11.25
2017-03-24T10:24:43.007Z,11.39
2017-03-24T10:25:51.900Z,11.27
2017-03-24T10:27:00.893Z,11.37
2017-03-24T10:28:09.784Z,11.35
2017-03-24T10:29:19.000Z,11.32
2017-03-24T10:30:28.266Z,11.42
2017-03-24T10:31:37.151Z,11.39
2017-03-24T10:32:46.197Z,11.37
2017-03-24T10:33:55.412Z,11.51
2017-03-24T10:35:04.625Z,11.43
2017-03-24T10:36:13.843Z,11.44
2017-03-24T10:37:23.059Z,11.49
2017-03-24T10:38:32.651Z,11.52
2017-03-24T10:39:41.539Z,11.58
2017-03-24T10:40:50.756Z,11.65
2017-03-24T10:41:59.967Z,11.58
2017-03-24T10:43:08.858Z,11.55
2017-03-24T10:44:18.223Z,11.73
2017-03-24T10:45:27.113Z,11.69
2017-03-24T10:46:36.333Z,11.65
2017-03-24T10:47:45.229Z,11.76
2017-03-24T10:48:54.117Z,11.76
2017-03-24T10:50:03.158Z,11.75
2017-03-24T10:51:12.048Z,11.88
2017-03-24T10:52:21.259Z,11.9
2017-03-24T10:53:30.152Z,11.9
2017-03-24T10:54:39.043Z,12.01
2017-03-24T10:55:47.996Z,12.1
2017-03-24T10:56:56.883Z,12.16
2017-03-24T10:58:05.779Z,12.28
2017-03-24T10:59:14.675Z,12.23
2017-03-24T11:00:23.570Z,12.29
2017-03-24T11:01:32.514Z,12.27
2017-03-24T11:02:41.406Z,12.27
2017-03-24T11:03:50.301Z,12.37
2017-03-24T11:04:59.194Z,12.39
2017-03-24T11:06:08.086Z,12.39
2017-03-24T11:07:17.702Z,12.42
2017-03-24T11:08:26.594Z,12.41
2017-03-24T11:09:35.499Z,12.41
2017-03-24T11:10:44.714Z,12.37
2017-03-24T11:11:53.603Z,12.42
2017-03-24T11:13:02.645Z,12.41
2017-03-24T11:14:11.532Z,12.42
2017-03-24T11:15:20.438Z,12.5
2017-03-24T11:16:29.980Z,12.56
2017-03-24T11:17:38.871Z,12.67
2017-03-24T11:18:47.809Z,12.65
2017-03-24T11:19:56.700Z,12.71
2017-03-24T11:21:05.588Z,12.74
2017-03-24T11:22:14.478Z,12.79
2017-03-24T11:23:23.371Z,12.75
2017-03-24T11:24:32.524Z,12.87
2017-03-24T11:25:41.740Z,12.82
2017-03-24T11:26:50.632Z,12.79
2017-03-24T11:27:59.546Z,12.65
2017-03-24T11:29:08.443Z,12.78
2017-03-24T11:30:17.383Z,12.85
2017-03-24T11:31:26.277Z,12.9
2017-03-24T11:32:35.492Z,12.86
2017-03-24T11:33:44.378Z,12.93
2017-03-24T11:34:53.265Z,13.03
2017-03-24T11:36:02.206Z,13.03
2017-03-24T11:37:11.092Z,13.1
2017-03-24T11:38:19.990Z,13.05
2017-03-24T11:39:29.205Z,13.03
2017-03-24T11:40:38.089Z,13.03
2017-03-24T11:41:47.349Z,13.15
2017-03-24T11:42:56.239Z,13.26
2017-03-24T11:44:05.125Z,13.22
2017-03-24T11:45:14.016Z,13.26
2017-03-24T11:46:22.910Z,13.26
2017-03-24T11:47:31.853Z,13.33
2017-03-24T11:48:41.073Z,13.33
2017-03-24T11:49:49.967Z,13.33
2017-03-24T11:50:58.866Z,13.29
2017-03-24T11:52:07.759Z,13.11
2017-03-24T11:53:16.698Z,13.25
2017-03-24T11:54:25.594Z,13.12
2017-03-24T11:55:34.488Z,13.26
2017-03-24T11:56:43.382Z,13.3
2017-03-24T11:57:52.267Z,13.41
2017-03-24T11:59:01.166Z,13.51
2017-03-24T12:00:10.716Z,13.46
2017-03-24T12:01:19.611Z,13.46
2017-03-24T12:02:28.825Z,13.36
2017-03-24T12:03:37.719Z,13.44
2017-03-24T12:04:46.770Z,13.51
2017-03-24T12:05:55.695Z,13.48
2017-03-24T12:07:04.627Z,13.39
2017-03-24T12:08:13.527Z,13.63
2017-03-24T12:09:22.422Z,13.66
2017-03-24T12:10:31.372Z,13.51
2017-03-24T12:11:40.269Z,13.52
2017-03-24T12:12:49.166Z,13.62
2017-03-24T12:13:58.060Z,13.69
2017-03-24T12:15:06.958Z,13.81
2017-03-24T12:16:15.902Z,13.97
2017-03-24T12:17:24.800Z,13.99
2017-03-24T12:18:33.702Z,14.07
2017-03-24T12:19:42.602Z,14.14
2017-03-24T12:20:51.501Z,14.29
2017-03-24T12:22:00.545Z,14.24
2017-03-24T12:23:09.449Z,14.28
2017-03-24T12:24:18.350Z,14.27
2017-03-24T12:25:27.591Z,14.15
2017-03-24T12:26:36.491Z,14.24
2017-03-24T12:27:45.950Z,14.21
2017-03-24T12:28:54.848Z,14.03
2017-03-24T12:30:04.077Z,14.17
2017-03-24T12:31:12.987Z,14.2
2017-03-24T12:32:21.889Z,14.21
2017-03-24T12:33:31.187Z,14.32
2017-03-24T12:34:40.091Z,14.45
2017-03-24T12:35:48.995Z,14.54
2017-03-24T12:36:57.898Z,14.5
2017-03-24T12:38:06.809Z,14.65
2017-03-24T12:39:16.286Z,14.73
2017-03-24T12:40:25.842Z,14.91
2017-03-24T12:41:34.741Z,14.91
2017-03-24T12:42:43.640Z,14.57
2017-03-24T12:43:52.540Z,14.73
2017-03-24T12:45:01.698Z,14.84
2017-03-24T12:46:10.598Z,14.65
2017-03-24T12:47:19.504Z,14.61
2017-03-24T12:48:28.406Z,14.73
2017-03-24T12:49:37.306Z,14.83
2017-03-24T12:50:46.361Z,14.91
2017-03-24T12:51:55.273Z,14.91
2017-03-24T12:53:04.502Z,14.95
2017-03-24T12:54:13.756Z,15.02
2017-03-24T12:55:22.700Z,14.96
2017-03-24T12:56:31.632Z,15.2
2017-03-24T12:57:40.536Z,14.96
2017-03-24T12:58:49.436Z,14.78
2017-03-24T12:59:58.802Z,14.52
2017-03-24T13:01:07.732Z,14.5
2017-03-24T13:02:16.920Z,14.58
2017-03-24T13:03:25.821Z,14.55
2017-03-24T13:04:34.744Z,14.61
2017-03-24T13:05:43.656Z,14.68
2017-03-24T13:06:52.918Z,14.77
2017-03-24T13:08:02.070Z,14.94
2017-03-24T13:09:11.551Z,14.99
2017-03-24T13:10:20.477Z,15.07
2017-03-24T13:11:29.759Z,15.21
2017-03-24T13:12:39.316Z,15.17
2017-03-24T13:13:48.522Z,15.25
2017-03-24T13:14:57.421Z,15.19
2017-03-24T13:16:06.376Z,15.39
2017-03-24T13:17:15.279Z,15.43
2017-03-24T13:18:24.507Z,15.29
2017-03-24T13:19:33.956Z,15.28
2017-03-24T13:20:42.860Z,15.31
2017-03-24T13:21:52.117Z,15.34
2017-03-24T13:23:01.344Z,15.44
2017-03-24T13:24:10.269Z,15.43
2017-03-24T13:25:19.880Z,15.39
2017-03-24T13:26:29.452Z,15.41
2017-03-24T13:27:38.689Z,15.02
2017-03-24T13:28:47.597Z,15.06
2017-03-24T13:29:56.504Z,15.28
2017-03-24T13:31:05.886Z,15.28
2017-03-24T13:32:15.438Z,15.28
2017-03-24T13:33:24.340Z,15.35
2017-03-24T13:34:33.241Z,15.5
2017-03-24T13:35:42.142Z,15.43
2017-03-24T13:36:51.414Z,15.54
2017-03-24T13:38:00.644Z,15.67
2017-03-24T13:39:09.551Z,16
2017-03-24T13:40:18.457Z,15.9
2017-03-24T13:41:27.394Z,15.96
2017-03-24T13:42:36.674Z,16.01
2017-03-24T13:43:45.577Z,16.15
2017-03-24T13:44:54.482Z,16.35
2017-03-24T13:46:03.389Z,16.38
2017-03-24T13:47:12.620Z,16.43
2017-03-24T13:48:21.692Z,16.45
2017-03-24T13:49:30.598Z,16.42
2017-03-24T13:50:40.545Z,16.66
2017-03-24T13:51:49.448Z,16.81
2017-03-24T13:52:58.377Z,16.79
2017-03-24T13:54:07.960Z,16.93
2017-03-24T13:55:16.862Z,16.82
2017-03-24T13:56:25.774Z,16.83
2017-03-24T13:57:34.682Z,17.07
2017-03-24T13:58:43.910Z,16.89
2017-03-24T13:59:52.873Z,16.67
2017-03-24T14:01:01.788Z,16.52
2017-03-24T14:02:10.698Z,16.68
2017-03-24T14:03:19.926Z,16.49
2017-03-24T14:04:28.835Z,16.73
2017-03-24T14:05:38.448Z,17.03
2017-03-24T14:06:47.683Z,17.37
2017-03-24T14:07:56.602Z,17.56
2017-03-24T14:09:05.518Z,17.95
2017-03-24T14:10:14.435Z,17.96
2017-03-24T14:11:23.991Z,17.93
2017-03-24T14:12:32.911Z,17.97
2017-03-24T14:13:41.834Z,18.07
2017-03-24T14:14:50.751Z,18.08
2017-03-24T14:15:59.667Z,18
2017-03-24T14:17:08.579Z,17.97
2017-03-24T14:18:18.139Z,18.17
2017-03-24T14:19:27.699Z,18.26
2017-03-24T14:20:36.930Z,18.39
2017-03-24T14:21:45.836Z,18.26
2017-03-24T14:22:54.902Z,18.32
2017-03-24T14:24:04.138Z,18.39
2017-03-24T14:25:13.055Z,18.5
2017-03-24T14:26:22.299Z,18.41
2017-03-24T14:27:31.212Z,18.3
2017-03-24T14:28:40.124Z,18.3
2017-03-24T14:29:49.059Z,18.47
2017-03-24T14:30:58.301Z,18.58
2017-03-24T14:32:07.596Z,18.65
2017-03-24T14:33:17.183Z,18.57
2017-03-24T14:34:26.378Z,18.47
2017-03-24T14:35:35.295Z,18.65
2017-03-24T14:36:44.208Z,18.76
2017-03-24T14:37:53.126Z,18.85
2017-03-24T14:39:02.045Z,18.84
2017-03-24T14:40:11.430Z,18.6
2017-03-24T14:41:20.347Z,18.72
2017-03-24T14:42:29.920Z,18.6
2017-03-24T14:43:39.158Z,18.42
2017-03-24T14:44:48.400Z,18.15
2017-03-24T14:45:57.794Z,18.33
2017-03-24T14:47:07.033Z,18.37
2017-03-24T14:48:15.947Z,18.35
2017-03-24T14:49:25.181Z,18.42
2017-03-24T14:50:34.097Z,18.58
2017-03-24T14:51:43.413Z,18.5
2017-03-24T14:52:52.327Z,18.54
2017-03-24T14:54:01.885Z,18.57
2017-03-24T14:55:11.449Z,18.41
2017-03-24T14:56:20.363Z,18.23
2017-03-24T14:57:29.647Z,18.21
2017-03-24T14:58:38.885Z,18.26
2017-03-24T14:59:47.797Z,18.18
2017-03-24T15:00:57.065Z,18.27
2017-03-24T15:02:05.977Z,18.26
2017-03-24T15:03:15.045Z,18.21
2017-03-24T15:04:23.949Z,18.23
2017-03-24T15:05:33.184Z,18.3
2017-03-24T15:06:42.740Z,18.27
2017-03-24T15:07:52.024Z,18.11
2017-03-24T15:09:01.075Z,17.96
2017-03-24T15:10:10.905Z,17.64
2017-03-24T15:11:19.928Z,17.77
2017-03-24T15:12:28.923Z,17.78
2017-03-24T15:13:38.431Z,17.55
2017-03-24T15:14:47.502Z,17.66